sensor_id;sensor_type;location;lat;lon;timestamp;temperature;humidity
43089;DHT22;28709;52.030;5.652;2023-03-24T00:02:11;11.50;99.90
43089;DHT22;28709;52.030;5.652;2023-03-24T00:04:38;11.50;99.90
43089;DHT22;28709;52.030;5.652;2023-03-24T00:07:10;11.50;99.90
43089;DHT22;28709;52.030;5.652;2023-03-24T00:09:43;11.60;99.90
43089;DHT22;28709;52.030;5.652;2023-03-24T00:12:10;11.60;99.90
43089;DHT22;28709;52.030;5.652;2023-03-24T00:14:37;11.50;99.90
43089;DHT22;28709;52.030;5.652;2023-03-24T00:17:04;11.50;99.90
43089;DHT22;28709;52.030;5.652;2023-03-24T00:19:31;11.50;99.90
43089;DHT22;28709;52.030;5.652;2023-03-24T00:21:59;11.50;99.90
43089;DHT22;28709;52.030;5.652;2023-03-24T00:24:25;11.50;99.90
43089;DHT22;28709;52.030;5.652;2023-03-24T00:26:52;11.60;99.90
43089;DHT22;28709;52.030;5.652;2023-03-24T00:29:22;11.50;99.90
43089;DHT22;28709;52.030;5.652;2023-03-24T00:31:49;11.50;99.90
43089;DHT22;28709;52.030;5.652;2023-03-24T00:34:17;11.50;99.90
43089;DHT22;28709;52.030;5.652;2023-03-24T00:36:46;11.50;99.90
43089;DHT22;28709;52.030;5.652;2023-03-24T00:39:13;11.50;99.90
43089;DHT22;28709;52.030;5.652;2023-03-24T00:41:41;11.50;99.90
43089;DHT22;28709;52.030;5.652;2023-03-24T00:44:09;11.50;99.90
43089;DHT22;28709;52.030;5.652;2023-03-24T00:46:52;11.60;99.90
43089;DHT22;28709;52.030;5.652;2023-03-24T00:49:22;11.60;99.90
43089;DHT22;28709;52.030;5.652;2023-03-24T00:52:10;11.60;99.90
43089;DHT22;28709;52.030;5.652;2023-03-24T00:54:38;11.60;99.90
43089;DHT22;28709;52.030;5.652;2023-03-24T00:57:05;11.60;99.90
43089;DHT22;28709;52.030;5.652;2023-03-24T00:59:31;11.60;99.90
43089;DHT22;28709;52.030;5.652;2023-03-24T01:01:57;11.70;99.90
43089;DHT22;28709;52.030;5.652;2023-03-24T01:04:23;11.70;99.90
43089;DHT22;28709;52.030;5.652;2023-03-24T01:06:52;11.70;99.90
43089;DHT22;28709;52.030;5.652;2023-03-24T01:09:19;11.70;99.90
43089;DHT22;28709;52.030;5.652;2023-03-24T01:11:48;11.70;99.90
43089;DHT22;28709;52.030;5.652;2023-03-24T01:14:13;11.70;99.90
43089;DHT22;28709;52.030;5.652;2023-03-24T01:16:40;11.70;99.90
43089;DHT22;28709;52.030;5.652;2023-03-24T01:19:07;11.70;99.90
43089;DHT22;28709;52.030;5.652;2023-03-24T01:21:34;11.70;99.90
43089;DHT22;28709;52.030;5.652;2023-03-24T01:24:03;11.80;99.90
43089;DHT22;28709;52.030;5.652;2023-03-24T01:26:30;11.80;99.90
43089;DHT22;28709;52.030;5.652;2023-03-24T01:28:56;11.80;99.90
43089;DHT22;28709;52.030;5.652;2023-03-24T01:31:21;11.80;99.90
43089;DHT22;28709;52.030;5.652;2023-03-24T01:33:47;11.80;99.90
43089;DHT22;28709;52.030;5.652;2023-03-24T01:36:13;11.80;99.90
43089;DHT22;28709;52.030;5.652;2023-03-24T01:38:38;11.90;99.90
43089;DHT22;28709;52.030;5.652;2023-03-24T01:41:05;11.90;99.90
43089;DHT22;28709;52.030;5.652;2023-03-24T01:43:32;11.90;99.90
43089;DHT22;28709;52.030;5.652;2023-03-24T01:48:44;12.00;99.90
43089;DHT22;28709;52.030;5.652;2023-03-24T01:51:32;12.00;99.90
43089;DHT22;28709;52.030;5.652;2023-03-24T01:54:16;12.00;99.90
43089;DHT22;28709;52.030;5.652;2023-03-24T01:56:46;12.00;99.90
43089;DHT22;28709;52.030;5.652;2023-03-24T01:59:18;12.00;99.90
43089;DHT22;28709;52.030;5.652;2023-03-24T02:01:45;12.00;99.90
43089;DHT22;28709;52.030;5.652;2023-03-24T02:04:12;12.00;99.90
43089;DHT22;28709;52.030;5.652;2023-03-24T02:06:40;12.00;99.90
43089;DHT22;28709;52.030;5.652;2023-03-24T02:09:10;12.00;99.90
43089;DHT22;28709;52.030;5.652;2023-03-24T02:11:37;12.00;99.90
43089;DHT22;28709;52.030;5.652;2023-03-24T02:14:04;12.00;99.90
43089;DHT22;28709;52.030;5.652;2023-03-24T02:22:35;12.00;99.90
43089;DHT22;28709;52.030;5.652;2023-03-24T02:31:56;12.00;99.90
43089;DHT22;28709;52.030;5.652;2023-03-24T02:45:05;12.10;99.90
43089;DHT22;28709;52.030;5.652;2023-03-24T02:47:36;12.00;99.90
43089;DHT22;28709;52.030;5.652;2023-03-24T02:50:13;12.00;99.90
43089;DHT22;28709;52.030;5.652;2023-03-24T02:52:45;12.00;99.90
43089;DHT22;28709;52.030;5.652;2023-03-24T02:55:21;12.00;99.90
43089;DHT22;28709;52.030;5.652;2023-03-24T02:58:10;12.00;99.90
43089;DHT22;28709;52.030;5.652;2023-03-24T03:00:48;11.90;99.90
43089;DHT22;28709;52.030;5.652;2023-03-24T03:03:54;11.70;99.90
43089;DHT22;28709;52.030;5.652;2023-03-24T03:06:25;11.50;99.90
43089;DHT22;28709;52.030;5.652;2023-03-24T03:08:53;11.40;99.90
43089;DHT22;28709;52.030;5.652;2023-03-24T03:11:20;11.30;99.90
43089;DHT22;28709;52.030;5.652;2023-03-24T03:13:50;11.30;99.90
43089;DHT22;28709;52.030;5.652;2023-03-24T03:16:21;11.30;99.90
43089;DHT22;28709;52.030;5.652;2023-03-24T03:19:00;11.20;99.90
43089;DHT22;28709;52.030;5.652;2023-03-24T03:21:31;11.20;99.90
43089;DHT22;28709;52.030;5.652;2023-03-24T03:24:07;11.20;99.90
43089;DHT22;28709;52.030;5.652;2023-03-24T03:26:35;11.20;99.90
43089;DHT22;28709;52.030;5.652;2023-03-24T03:29:06;11.10;99.90
43089;DHT22;28709;52.030;5.652;2023-03-24T03:31:39;11.10;99.90
43089;DHT22;28709;52.030;5.652;2023-03-24T03:34:36;11.00;99.90
43089;DHT22;28709;52.030;5.652;2023-03-24T03:37:24;11.00;99.90
43089;DHT22;28709;52.030;5.652;2023-03-24T03:40:21;11.00;99.90
43089;DHT22;28709;52.030;5.652;2023-03-24T03:42:49;10.90;99.90
43089;DHT22;28709;52.030;5.652;2023-03-24T03:45:16;10.90;99.90
43089;DHT22;28709;52.030;5.652;2023-03-24T03:47:42;10.80;99.90
43089;DHT22;28709;52.030;5.652;2023-03-24T03:50:08;10.70;99.90
43089;DHT22;28709;52.030;5.652;2023-03-24T03:52:36;10.70;99.90
43089;DHT22;28709;52.030;5.652;2023-03-24T03:55:05;10.60;99.90
43089;DHT22;28709;52.030;5.652;2023-03-24T03:57:32;10.50;99.90
43089;DHT22;28709;52.030;5.652;2023-03-24T04:00:00;10.50;99.90
43089;DHT22;28709;52.030;5.652;2023-03-24T04:14:10;10.20;99.90
43089;DHT22;28709;52.030;5.652;2023-03-24T04:20:00;10.10;99.90
43089;DHT22;28709;52.030;5.652;2023-03-24T04:25:47;10.10;99.90
43089;DHT22;28709;52.030;5.652;2023-03-24T04:28:26;10.10;99.90
43089;DHT22;28709;52.030;5.652;2023-03-24T04:31:06;10.00;99.90
43089;DHT22;28709;52.030;5.652;2023-03-24T04:36:25;10.00;99.90
43089;DHT22;28709;52.030;5.652;2023-03-24T04:38:53;10.00;99.90
43089;DHT22;28709;52.030;5.652;2023-03-24T04:41:23;10.00;99.90
43089;DHT22;28709;52.030;5.652;2023-03-24T04:43:51;10.00;99.90
43089;DHT22;28709;52.030;5.652;2023-03-24T04:46:17;10.10;99.90
43089;DHT22;28709;52.030;5.652;2023-03-24T04:48:44;10.10;99.90
43089;DHT22;28709;52.030;5.652;2023-03-24T04:51:13;10.10;99.90
43089;DHT22;28709;52.030;5.652;2023-03-24T04:53:39;10.10;99.90
43089;DHT22;28709;52.030;5.652;2023-03-24T04:56:25;10.10;99.90
43089;DHT22;28709;52.030;5.652;2023-03-24T04:58:52;10.10;99.90
43089;DHT22;28709;52.030;5.652;2023-03-24T05:01:17;10.10;99.90
43089;DHT22;28709;52.030;5.652;2023-03-24T05:03:46;10.10;99.90
43089;DHT22;28709;52.030;5.652;2023-03-24T05:06:12;10.00;99.90
43089;DHT22;28709;52.030;5.652;2023-03-24T05:08:38;10.00;99.90
43089;DHT22;28709;52.030;5.652;2023-03-24T05:11:04;10.00;99.90
43089;DHT22;28709;52.030;5.652;2023-03-24T05:13:30;10.00;99.90
43089;DHT22;28709;52.030;5.652;2023-03-24T05:15:56;10.00;99.90
43089;DHT22;28709;52.030;5.652;2023-03-24T05:18:23;9.90;99.90
43089;DHT22;28709;52.030;5.652;2023-03-24T05:20:49;9.80;99.90
43089;DHT22;28709;52.030;5.652;2023-03-24T05:23:15;9.70;99.90
43089;DHT22;28709;52.030;5.652;2023-03-24T05:25:41;9.70;99.90
43089;DHT22;28709;52.030;5.652;2023-03-24T05:28:06;9.60;99.90
43089;DHT22;28709;52.030;5.652;2023-03-24T05:30:32;9.50;99.90
43089;DHT22;28709;52.030;5.652;2023-03-24T05:32:58;9.40;99.90
43089;DHT22;28709;52.030;5.652;2023-03-24T05:35:24;9.40;99.90
43089;DHT22;28709;52.030;5.652;2023-03-24T05:37:50;9.40;99.90
43089;DHT22;28709;52.030;5.652;2023-03-24T05:40:16;9.40;99.90
43089;DHT22;28709;52.030;5.652;2023-03-24T05:42:41;9.40;99.90
43089;DHT22;28709;52.030;5.652;2023-03-24T05:45:09;9.40;99.90
43089;DHT22;28709;52.030;5.652;2023-03-24T05:47:35;9.50;99.90
43089;DHT22;28709;52.030;5.652;2023-03-24T05:50:01;9.50;99.90
43089;DHT22;28709;52.030;5.652;2023-03-24T05:52:26;9.60;99.90
43089;DHT22;28709;52.030;5.652;2023-03-24T05:54:52;9.60;99.90
43089;DHT22;28709;52.030;5.652;2023-03-24T05:57:18;9.60;99.90
43089;DHT22;28709;52.030;5.652;2023-03-24T05:59:44;9.60;99.90
43089;DHT22;28709;52.030;5.652;2023-03-24T06:02:10;9.70;99.90
43089;DHT22;28709;52.030;5.652;2023-03-24T06:04:36;9.70;99.90
43089;DHT22;28709;52.030;5.652;2023-03-24T06:07:02;9.70;99.90
43089;DHT22;28709;52.030;5.652;2023-03-24T06:09:29;9.80;99.90
43089;DHT22;28709;52.030;5.652;2023-03-24T06:12:01;9.80;99.90
43089;DHT22;28709;52.030;5.652;2023-03-24T06:14:27;9.90;99.90
43089;DHT22;28709;52.030;5.652;2023-03-24T06:16:54;9.90;99.90
43089;DHT22;28709;52.030;5.652;2023-03-24T06:19:24;9.90;99.90
43089;DHT22;28709;52.030;5.652;2023-03-24T06:21:49;9.90;99.90
43089;DHT22;28709;52.030;5.652;2023-03-24T06:24:19;10.00;99.90
43089;DHT22;28709;52.030;5.652;2023-03-24T06:26:45;10.00;99.90
43089;DHT22;28709;52.030;5.652;2023-03-24T06:29:15;10.00;99.90
43089;DHT22;28709;52.030;5.652;2023-03-24T06:31:47;10.00;99.90
43089;DHT22;28709;52.030;5.652;2023-03-24T06:34:13;10.10;99.90
43089;DHT22;28709;52.030;5.652;2023-03-24T06:36:39;10.10;99.90
43089;DHT22;28709;52.030;5.652;2023-03-24T06:39:05;10.10;99.90
43089;DHT22;28709;52.030;5.652;2023-03-24T06:41:31;10.10;99.90
43089;DHT22;28709;52.030;5.652;2023-03-24T06:43:57;10.10;99.90
43089;DHT22;28709;52.030;5.652;2023-03-24T06:46:23;10.20;99.90
43089;DHT22;28709;52.030;5.652;2023-03-24T06:48:49;10.20;99.90
43089;DHT22;28709;52.030;5.652;2023-03-24T06:51:15;10.30;99.90
43089;DHT22;28709;52.030;5.652;2023-03-24T06:53:41;10.30;99.90
43089;DHT22;28709;52.030;5.652;2023-03-24T06:56:10;10.30;99.90
43089;DHT22;28709;52.030;5.652;2023-03-24T06:58:41;10.30;99.90
43089;DHT22;28709;52.030;5.652;2023-03-24T07:01:07;10.40;99.90
43089;DHT22;28709;52.030;5.652;2023-03-24T07:03:33;10.40;99.90
43089;DHT22;28709;52.030;5.652;2023-03-24T07:05:58;10.40;99.90
43089;DHT22;28709;52.030;5.652;2023-03-24T07:08:25;10.50;99.90
43089;DHT22;28709;52.030;5.652;2023-03-24T07:10:50;10.50;99.90
43089;DHT22;28709;52.030;5.652;2023-03-24T07:13:16;10.60;99.90
43089;DHT22;28709;52.030;5.652;2023-03-24T07:15:41;10.60;99.90
43089;DHT22;28709;52.030;5.652;2023-03-24T07:18:07;10.70;99.90
43089;DHT22;28709;52.030;5.652;2023-03-24T07:20:33;10.80;99.90
43089;DHT22;28709;52.030;5.652;2023-03-24T07:22:58;10.80;99.90
43089;DHT22;28709;52.030;5.652;2023-03-24T07:25:25;10.90;99.90
43089;DHT22;28709;52.030;5.652;2023-03-24T07:27:54;10.90;99.90
43089;DHT22;28709;52.030;5.652;2023-03-24T07:30:21;11.00;99.90
43089;DHT22;28709;52.030;5.652;2023-03-24T07:32:47;11.00;99.90
43089;DHT22;28709;52.030;5.652;2023-03-24T07:35:15;11.00;99.90
43089;DHT22;28709;52.030;5.652;2023-03-24T07:37:41;11.20;99.90
43089;DHT22;28709;52.030;5.652;2023-03-24T07:40:08;11.30;99.90
43089;DHT22;28709;52.030;5.652;2023-03-24T07:42:41;11.40;99.90
43089;DHT22;28709;52.030;5.652;2023-03-24T07:45:10;11.40;99.90
43089;DHT22;28709;52.030;5.652;2023-03-24T07:47:38;11.50;99.90
43089;DHT22;28709;52.030;5.652;2023-03-24T07:50:07;11.70;99.90
43089;DHT22;28709;52.030;5.652;2023-03-24T07:52:40;11.90;99.90
43089;DHT22;28709;52.030;5.652;2023-03-24T07:55:08;12.00;99.90
43089;DHT22;28709;52.030;5.652;2023-03-24T07:57:39;12.40;99.90
43089;DHT22;28709;52.030;5.652;2023-03-24T08:00:07;12.70;99.90
43089;DHT22;28709;52.030;5.652;2023-03-24T08:02:43;12.90;99.90
43089;DHT22;28709;52.030;5.652;2023-03-24T08:05:09;12.90;99.90
43089;DHT22;28709;52.030;5.652;2023-03-24T08:07:41;12.80;99.90
43089;DHT22;28709;52.030;5.652;2023-03-24T08:10:13;12.60;99.90
43089;DHT22;28709;52.030;5.652;2023-03-24T08:12:40;12.60;99.90
43089;DHT22;28709;52.030;5.652;2023-03-24T08:15:06;12.80;99.90
43089;DHT22;28709;52.030;5.652;2023-03-24T08:17:34;12.90;99.90
43089;DHT22;28709;52.030;5.652;2023-03-24T08:20:00;12.90;99.90
43089;DHT22;28709;52.030;5.652;2023-03-24T08:22:29;12.90;99.90
43089;DHT22;28709;52.030;5.652;2023-03-24T08:24:55;12.70;99.90
43089;DHT22;28709;52.030;5.652;2023-03-24T08:27:21;12.70;99.90
43089;DHT22;28709;52.030;5.652;2023-03-24T08:29:47;12.90;99.90
43089;DHT22;28709;52.030;5.652;2023-03-24T08:32:13;12.90;99.90
43089;DHT22;28709;52.030;5.652;2023-03-24T08:34:39;13.10;99.90
43089;DHT22;28709;52.030;5.652;2023-03-24T08:37:04;13.40;99.90
43089;DHT22;28709;52.030;5.652;2023-03-24T08:39:30;13.60;99.90
43089;DHT22;28709;52.030;5.652;2023-03-24T08:41:57;13.90;99.90
43089;DHT22;28709;52.030;5.652;2023-03-24T08:44:23;14.00;99.90
43089;DHT22;28709;52.030;5.652;2023-03-24T08:46:48;13.80;99.90
43089;DHT22;28709;52.030;5.652;2023-03-24T08:49:15;13.80;99.90
43089;DHT22;28709;52.030;5.652;2023-03-24T08:51:41;13.80;99.90
43089;DHT22;28709;52.030;5.652;2023-03-24T08:54:07;14.00;99.90
43089;DHT22;28709;52.030;5.652;2023-03-24T08:56:33;14.10;99.90
43089;DHT22;28709;52.030;5.652;2023-03-24T08:58:59;14.10;99.90
43089;DHT22;28709;52.030;5.652;2023-03-24T09:01:25;14.30;99.90
43089;DHT22;28709;52.030;5.652;2023-03-24T09:03:51;14.30;99.90
43089;DHT22;28709;52.030;5.652;2023-03-24T09:06:16;14.30;99.90
43089;DHT22;28709;52.030;5.652;2023-03-24T09:08:42;14.00;99.90
43089;DHT22;28709;52.030;5.652;2023-03-24T09:11:14;14.00;99.90
43089;DHT22;28709;52.030;5.652;2023-03-24T09:13:41;14.00;99.90
43089;DHT22;28709;52.030;5.652;2023-03-24T09:16:06;13.90;99.90
43089;DHT22;28709;52.030;5.652;2023-03-24T09:18:32;13.90;99.90
43089;DHT22;28709;52.030;5.652;2023-03-24T09:20:58;13.80;99.90
43089;DHT22;28709;52.030;5.652;2023-03-24T09:23:24;13.80;99.90
43089;DHT22;28709;52.030;5.652;2023-03-24T09:25:53;13.60;99.90
43089;DHT22;28709;52.030;5.652;2023-03-24T09:28:19;13.60;99.90
43089;DHT22;28709;52.030;5.652;2023-03-24T09:30:45;14.00;99.90
43089;DHT22;28709;52.030;5.652;2023-03-24T09:33:11;14.60;99.90
43089;DHT22;28709;52.030;5.652;2023-03-24T09:35:37;15.30;99.90
43089;DHT22;28709;52.030;5.652;2023-03-24T09:38:03;16.00;99.90
43089;DHT22;28709;52.030;5.652;2023-03-24T09:40:32;16.60;99.90
43089;DHT22;28709;52.030;5.652;2023-03-24T09:43:20;17.00;99.90
43089;DHT22;28709;52.030;5.652;2023-03-24T09:45:56;16.70;99.90
43089;DHT22;28709;52.030;5.652;2023-03-24T09:48:48;16.20;99.90
43089;DHT22;28709;52.030;5.652;2023-03-24T09:51:28;15.80;99.90
43089;DHT22;28709;52.030;5.652;2023-03-24T09:54:13;15.60;99.90
43089;DHT22;28709;52.030;5.652;2023-03-24T09:56:44;15.80;99.90
43089;DHT22;28709;52.030;5.652;2023-03-24T09:59:34;16.20;99.90
43089;DHT22;28709;52.030;5.652;2023-03-24T10:02:00;16.50;99.90
43089;DHT22;28709;52.030;5.652;2023-03-24T10:04:29;16.20;99.90
43089;DHT22;28709;52.030;5.652;2023-03-24T10:07:24;15.80;99.90
43089;DHT22;28709;52.030;5.652;2023-03-24T10:09:56;15.60;99.90
43089;DHT22;28709;52.030;5.652;2023-03-24T10:18:00;15.20;99.90
43089;DHT22;28709;52.030;5.652;2023-03-24T10:20:46;15.90;99.90
43089;DHT22;28709;52.030;5.652;2023-03-24T10:23:23;16.70;99.90
43089;DHT22;28709;52.030;5.652;2023-03-24T10:31:30;18.10;99.90
43089;DHT22;28709;52.030;5.652;2023-03-24T10:33:57;18.20;99.90
43089;DHT22;28709;52.030;5.652;2023-03-24T10:36:23;17.70;99.90
43089;DHT22;28709;52.030;5.652;2023-03-24T10:38:50;16.90;99.90
43089;DHT22;28709;52.030;5.652;2023-03-24T10:41:19;16.80;99.90
43089;DHT22;28709;52.030;5.652;2023-03-24T10:43:46;17.00;99.90
43089;DHT22;28709;52.030;5.652;2023-03-24T10:46:23;17.30;99.90
43089;DHT22;28709;52.030;5.652;2023-03-24T10:48:54;17.80;99.90
43089;DHT22;28709;52.030;5.652;2023-03-24T10:51:32;17.50;99.70
43089;DHT22;28709;52.030;5.652;2023-03-24T10:56:41;16.80;99.90
43089;DHT22;28709;52.030;5.652;2023-03-24T11:02:19;16.30;99.90
43089;DHT22;28709;52.030;5.652;2023-03-24T11:04:53;16.20;99.90
43089;DHT22;28709;52.030;5.652;2023-03-24T11:07:21;16.00;99.90
43089;DHT22;28709;52.030;5.652;2023-03-24T11:10:17;15.60;99.90
43089;DHT22;28709;52.030;5.652;2023-03-24T11:17:47;14.70;99.90
43089;DHT22;28709;52.030;5.652;2023-03-24T11:20:37;14.50;99.90
43089;DHT22;28709;52.030;5.652;2023-03-24T11:26:04;14.50;99.90
43089;DHT22;28709;52.030;5.652;2023-03-24T11:28:36;14.40;99.90
43089;DHT22;28709;52.030;5.652;2023-03-24T11:31:08;14.00;99.90
43089;DHT22;28709;52.030;5.652;2023-03-24T11:33:41;13.70;99.90
43089;DHT22;28709;52.030;5.652;2023-03-24T11:41:30;12.90;99.90
43089;DHT22;28709;52.030;5.652;2023-03-24T11:46:41;12.70;99.90
43089;DHT22;28709;52.030;5.652;2023-03-24T11:49:08;12.50;99.90
43089;DHT22;28709;52.030;5.652;2023-03-24T11:51:37;12.30;99.90
43089;DHT22;28709;52.030;5.652;2023-03-24T11:54:12;12.20;99.90
43089;DHT22;28709;52.030;5.652;2023-03-24T11:56:45;12.20;99.90
43089;DHT22;28709;52.030;5.652;2023-03-24T11:59:35;12.10;99.90
43089;DHT22;28709;52.030;5.652;2023-03-24T12:04:50;11.90;99.90
43089;DHT22;28709;52.030;5.652;2023-03-24T12:10:24;11.80;99.90
43089;DHT22;28709;52.030;5.652;2023-03-24T12:13:10;11.70;99.90
43089;DHT22;28709;52.030;5.652;2023-03-24T12:15:56;11.40;99.90
43089;DHT22;28709;52.030;5.652;2023-03-24T12:24:01;10.70;99.90
43089;DHT22;28709;52.030;5.652;2023-03-24T12:26:32;10.70;99.90
43089;DHT22;28709;52.030;5.652;2023-03-24T12:37:26;11.50;99.90
43089;DHT22;28709;52.030;5.652;2023-03-24T12:43:04;12.30;99.90
43089;DHT22;28709;52.030;5.652;2023-03-24T12:45:47;13.40;99.90
43089;DHT22;28709;52.030;5.652;2023-03-24T12:51:13;15.20;99.90
43089;DHT22;28709;52.030;5.652;2023-03-24T12:54:01;15.60;99.90
43089;DHT22;28709;52.030;5.652;2023-03-24T12:56:38;15.70;99.90
43089;DHT22;28709;52.030;5.652;2023-03-24T12:59:15;15.10;99.90
43089;DHT22;28709;52.030;5.652;2023-03-24T13:01:50;14.50;99.90
43089;DHT22;28709;52.030;5.652;2023-03-24T13:06:52;13.40;99.90
43089;DHT22;28709;52.030;5.652;2023-03-24T13:12:20;12.80;99.90
43089;DHT22;28709;52.030;5.652;2023-03-24T13:15:06;12.60;99.90
43089;DHT22;28709;52.030;5.652;2023-03-24T13:23:14;11.80;99.90
43089;DHT22;28709;52.030;5.652;2023-03-24T13:34:31;13.50;99.90
43089;DHT22;28709;52.030;5.652;2023-03-24T13:39:27;13.60;99.90
43089;DHT22;28709;52.030;5.652;2023-03-24T13:41:56;13.40;99.90
43089;DHT22;28709;52.030;5.652;2023-03-24T13:44:24;13.10;99.90
43089;DHT22;28709;52.030;5.652;2023-03-24T13:47:15;12.90;99.90
43089;DHT22;28709;52.030;5.652;2023-03-24T13:49:54;12.70;99.90
43089;DHT22;28709;52.030;5.652;2023-03-24T13:52:36;12.60;99.90
43089;DHT22;28709;52.030;5.652;2023-03-24T13:55:11;12.50;99.90
43089;DHT22;28709;52.030;5.652;2023-03-24T13:57:42;12.50;99.90
43089;DHT22;28709;52.030;5.652;2023-03-24T14:00:25;12.30;99.90
43089;DHT22;28709;52.030;5.652;2023-03-24T14:03:14;12.20;99.90
43089;DHT22;28709;52.030;5.652;2023-03-24T14:06:01;12.00;99.90
43089;DHT22;28709;52.030;5.652;2023-03-24T14:14:15;11.70;99.90
43089;DHT22;28709;52.030;5.652;2023-03-24T14:19:41;11.60;99.90
43089;DHT22;28709;52.030;5.652;2023-03-24T14:24:37;11.40;99.90
43089;DHT22;28709;52.030;5.652;2023-03-24T14:29:52;10.80;99.90
43089;DHT22;28709;52.030;5.652;2023-03-24T14:32:19;10.60;99.90
43089;DHT22;28709;52.030;5.652;2023-03-24T14:37:54;10.50;99.90
43089;DHT22;28709;52.030;5.652;2023-03-24T14:40:42;10.60;99.90
43089;DHT22;28709;52.030;5.652;2023-03-24T14:43:21;10.60;99.90
43089;DHT22;28709;52.030;5.652;2023-03-24T14:45:59;10.60;99.90
43089;DHT22;28709;52.030;5.652;2023-03-24T14:48:30;10.70;99.90
43089;DHT22;28709;52.030;5.652;2023-03-24T14:51:05;10.80;99.90
43089;DHT22;28709;52.030;5.652;2023-03-24T14:53:35;10.90;99.90
43089;DHT22;28709;52.030;5.652;2023-03-24T14:56:04;11.00;99.90
43089;DHT22;28709;52.030;5.652;2023-03-24T14:58:34;11.10;99.90
43089;DHT22;28709;52.030;5.652;2023-03-24T15:01:04;11.30;99.90
43089;DHT22;28709;52.030;5.652;2023-03-24T15:04:06;11.30;99.90
43089;DHT22;28709;52.030;5.652;2023-03-24T15:06:32;11.40;99.90
43089;DHT22;28709;52.030;5.652;2023-03-24T15:09:09;11.40;99.90
43089;DHT22;28709;52.030;5.652;2023-03-24T15:11:38;11.60;99.90
43089;DHT22;28709;52.030;5.652;2023-03-24T15:14:05;11.60;99.90
43089;DHT22;28709;52.030;5.652;2023-03-24T15:16:33;11.60;99.90
43089;DHT22;28709;52.030;5.652;2023-03-24T15:19:08;11.70;99.90
43089;DHT22;28709;52.030;5.652;2023-03-24T15:22:04;11.70;99.90
43089;DHT22;28709;52.030;5.652;2023-03-24T15:24:35;11.80;99.90
43089;DHT22;28709;52.030;5.652;2023-03-24T15:29:34;11.90;99.90
43089;DHT22;28709;52.030;5.652;2023-03-24T15:32:01;11.90;99.90
43089;DHT22;28709;52.030;5.652;2023-03-24T15:34:29;12.00;99.90
43089;DHT22;28709;52.030;5.652;2023-03-24T15:36:59;11.90;99.90
43089;DHT22;28709;52.030;5.652;2023-03-24T15:39:36;12.00;99.90
43089;DHT22;28709;52.030;5.652;2023-03-24T15:42:07;12.00;99.90
43089;DHT22;28709;52.030;5.652;2023-03-24T15:44:38;12.20;99.90
43089;DHT22;28709;52.030;5.652;2023-03-24T15:47:14;12.30;99.90
43089;DHT22;28709;52.030;5.652;2023-03-24T15:50:26;12.40;99.90
43089;DHT22;28709;52.030;5.652;2023-03-24T15:55:38;12.60;99.90
43089;DHT22;28709;52.030;5.652;2023-03-24T15:58:25;12.60;99.90
43089;DHT22;28709;52.030;5.652;2023-03-24T16:00:59;12.60;99.90
43089;DHT22;28709;52.030;5.652;2023-03-24T16:03:28;12.60;99.90
43089;DHT22;28709;52.030;5.652;2023-03-24T16:05:55;12.50;99.90
43089;DHT22;28709;52.030;5.652;2023-03-24T16:08:31;12.50;99.90
43089;DHT22;28709;52.030;5.652;2023-03-24T16:11:03;12.50;99.90
43089;DHT22;28709;52.030;5.652;2023-03-24T16:13:35;12.50;99.90
43089;DHT22;28709;52.030;5.652;2023-03-24T16:18:46;12.50;99.90
43089;DHT22;28709;52.030;5.652;2023-03-24T16:23:39;12.40;99.90
43089;DHT22;28709;52.030;5.652;2023-03-24T16:26:12;12.50;99.90
43089;DHT22;28709;52.030;5.652;2023-03-24T16:28:38;12.40;99.90
43089;DHT22;28709;52.030;5.652;2023-03-24T16:31:04;12.30;99.90
43089;DHT22;28709;52.030;5.652;2023-03-24T16:33:30;12.30;99.90
43089;DHT22;28709;52.030;5.652;2023-03-24T16:35:57;12.20;99.90
43089;DHT22;28709;52.030;5.652;2023-03-24T16:38:24;12.20;99.90
43089;DHT22;28709;52.030;5.652;2023-03-24T16:40:52;12.10;99.90
43089;DHT22;28709;52.030;5.652;2023-03-24T16:43:18;12.20;99.90
43089;DHT22;28709;52.030;5.652;2023-03-24T16:45:46;12.10;99.90
43089;DHT22;28709;52.030;5.652;2023-03-24T16:48:12;12.10;99.90
43089;DHT22;28709;52.030;5.652;2023-03-24T16:50:44;12.20;99.90
43089;DHT22;28709;52.030;5.652;2023-03-24T16:53:10;12.20;99.90
43089;DHT22;28709;52.030;5.652;2023-03-24T16:55:37;12.20;99.90
43089;DHT22;28709;52.030;5.652;2023-03-24T16:58:04;12.20;99.90
43089;DHT22;28709;52.030;5.652;2023-03-24T17:00:31;12.20;99.90
43089;DHT22;28709;52.030;5.652;2023-03-24T17:02:57;12.30;99.90
43089;DHT22;28709;52.030;5.652;2023-03-24T17:07:52;12.30;99.90
43089;DHT22;28709;52.030;5.652;2023-03-24T17:10:17;12.30;99.90
43089;DHT22;28709;52.030;5.652;2023-03-24T17:12:43;12.30;99.90
43089;DHT22;28709;52.030;5.652;2023-03-24T17:15:25;12.20;99.90
43089;DHT22;28709;52.030;5.652;2023-03-24T17:17:51;12.20;99.90
43089;DHT22;28709;52.030;5.652;2023-03-24T17:20:17;12.20;99.90
43089;DHT22;28709;52.030;5.652;2023-03-24T17:22:45;12.10;99.90
43089;DHT22;28709;52.030;5.652;2023-03-24T17:25:14;12.10;99.90
43089;DHT22;28709;52.030;5.652;2023-03-24T17:27:40;12.00;99.90
43089;DHT22;28709;52.030;5.652;2023-03-24T17:30:07;12.00;99.90
43089;DHT22;28709;52.030;5.652;2023-03-24T17:32:33;12.00;99.90
43089;DHT22;28709;52.030;5.652;2023-03-24T17:34:59;12.00;99.90
43089;DHT22;28709;52.030;5.652;2023-03-24T17:37:29;12.00;99.90
43089;DHT22;28709;52.030;5.652;2023-03-24T17:39:55;12.00;99.90
43089;DHT22;28709;52.030;5.652;2023-03-24T17:42:24;12.00;99.90
43089;DHT22;28709;52.030;5.652;2023-03-24T17:44:50;12.00;99.90
43089;DHT22;28709;52.030;5.652;2023-03-24T17:47:16;12.00;99.90
43089;DHT22;28709;52.030;5.652;2023-03-24T17:49:41;12.00;99.90
43089;DHT22;28709;52.030;5.652;2023-03-24T17:52:07;12.00;99.90
43089;DHT22;28709;52.030;5.652;2023-03-24T17:54:33;12.00;99.90
43089;DHT22;28709;52.030;5.652;2023-03-24T17:56:59;12.00;99.90
43089;DHT22;28709;52.030;5.652;2023-03-24T17:59:24;12.00;99.90
43089;DHT22;28709;52.030;5.652;2023-03-24T18:01:50;11.90;99.90
43089;DHT22;28709;52.030;5.652;2023-03-24T18:04:16;11.90;99.90
43089;DHT22;28709;52.030;5.652;2023-03-24T18:06:42;11.90;99.90
43089;DHT22;28709;52.030;5.652;2023-03-24T18:09:08;11.80;99.90
43089;DHT22;28709;52.030;5.652;2023-03-24T18:11:34;11.70;99.90
43089;DHT22;28709;52.030;5.652;2023-03-24T18:14:00;11.70;99.90
43089;DHT22;28709;52.030;5.652;2023-03-24T18:16:27;11.60;99.90
43089;DHT22;28709;52.030;5.652;2023-03-24T18:18:55;11.60;99.90
43089;DHT22;28709;52.030;5.652;2023-03-24T18:21:21;11.60;99.90
43089;DHT22;28709;52.030;5.652;2023-03-24T18:23:48;11.60;99.90
43089;DHT22;28709;52.030;5.652;2023-03-24T18:26:15;11.50;99.90
43089;DHT22;28709;52.030;5.652;2023-03-24T18:28:42;11.50;99.90
43089;DHT22;28709;52.030;5.652;2023-03-24T18:31:18;11.50;99.90